In Rescue
 
Open Full Screen Window  High Contrast Mode
Wind Gusting 00 knots
10
September 18, 2020 9:51 PM CDT
Weather Information
Wind Direction
  170 °
Wind Speed
  10 kt (12 mph)
Wind Gust
  00 kt (0 mph)
Altimeter
30.10 in
Visibility
10 SM
Temperature
14° C
57° F
Dewpoint
06° C
43° F
Humidity
59%
1hr Rain Fall
00.00 in.
24hr Rain Fall
00.00 in.
Sky Condition
Clear
VFR

METAR KHCO 190251Z AUTO 17010KT 10SM CLR 14/06 A3010 RMK AO2

FAA Disclaimer: The data displayed is for advisory purposes only and is not to be used for flight planning or operations.